sensor_id;sensor_type;location;lat;lon;timestamp;temperature;humidity
52211;DHT22;38179;52.756;6.906;2023-05-16T00:00:34;9.80;99.90
52211;DHT22;38179;52.756;6.906;2023-05-16T00:03:00;9.80;99.90
52211;DHT22;38179;52.756;6.906;2023-05-16T00:05:28;9.70;99.90
52211;DHT22;38179;52.756;6.906;2023-05-16T00:07:53;9.70;99.90
52211;DHT22;38179;52.756;6.906;2023-05-16T00:10:19;9.70;99.90
52211;DHT22;38179;52.756;6.906;2023-05-16T00:12:45;9.70;99.90
52211;DHT22;38179;52.756;6.906;2023-05-16T00:15:16;9.70;99.90
52211;DHT22;38179;52.756;6.906;2023-05-16T00:17:42;9.60;99.90
52211;DHT22;38179;52.756;6.906;2023-05-16T00:20:14;9.60;99.90
52211;DHT22;38179;52.756;6.906;2023-05-16T00:22:42;9.50;99.90
52211;DHT22;38179;52.756;6.906;2023-05-16T00:25:08;9.60;99.90
52211;DHT22;38179;52.756;6.906;2023-05-16T00:27:35;9.60;99.90
52211;DHT22;38179;52.756;6.906;2023-05-16T00:30:02;9.50;99.90
52211;DHT22;38179;52.756;6.906;2023-05-16T00:32:28;9.50;99.90
52211;DHT22;38179;52.756;6.906;2023-05-16T00:34:54;9.50;99.90
52211;DHT22;38179;52.756;6.906;2023-05-16T00:37:20;9.50;99.90
52211;DHT22;38179;52.756;6.906;2023-05-16T00:39:45;9.30;99.90
52211;DHT22;38179;52.756;6.906;2023-05-16T00:42:11;9.30;99.90
52211;DHT22;38179;52.756;6.906;2023-05-16T00:44:37;9.30;99.90
52211;DHT22;38179;52.756;6.906;2023-05-16T00:47:04;9.30;99.90
52211;DHT22;38179;52.756;6.906;2023-05-16T00:49:30;9.30;99.90
52211;DHT22;38179;52.756;6.906;2023-05-16T00:51:57;9.20;99.90
52211;DHT22;38179;52.756;6.906;2023-05-16T00:54:25;9.30;99.90
52211;DHT22;38179;52.756;6.906;2023-05-16T00:56:54;9.20;99.90
52211;DHT22;38179;52.756;6.906;2023-05-16T00:59:22;9.10;99.90
52211;DHT22;38179;52.756;6.906;2023-05-16T01:01:49;9.10;99.90
52211;DHT22;38179;52.756;6.906;2023-05-16T01:04:17;9.10;99.90
52211;DHT22;38179;52.756;6.906;2023-05-16T01:06:44;9.10;99.90
52211;DHT22;38179;52.756;6.906;2023-05-16T01:09:10;9.10;99.90
52211;DHT22;38179;52.756;6.906;2023-05-16T01:17:25;9.00;99.90
52211;DHT22;38179;52.756;6.906;2023-05-16T01:21:15;8.90;99.90
52211;DHT22;38179;52.756;6.906;2023-05-16T01:26:20;8.80;99.90
52211;DHT22;38179;52.756;6.906;2023-05-16T01:28:48;8.80;99.90
52211;DHT22;38179;52.756;6.906;2023-05-16T01:31:15;8.70;99.90
52211;DHT22;38179;52.756;6.906;2023-05-16T01:33:41;8.70;99.90
52211;DHT22;38179;52.756;6.906;2023-05-16T01:36:18;8.70;99.90
52211;DHT22;38179;52.756;6.906;2023-05-16T01:39:00;8.70;99.90
52211;DHT22;38179;52.756;6.906;2023-05-16T01:44:24;8.70;99.90
52211;DHT22;38179;52.756;6.906;2023-05-16T01:46:56;8.60;99.90
52211;DHT22;38179;52.756;6.906;2023-05-16T01:49:33;8.60;99.90
52211;DHT22;38179;52.756;6.906;2023-05-16T01:52:07;8.50;99.90
52211;DHT22;38179;52.756;6.906;2023-05-16T01:54:37;8.40;99.90
52211;DHT22;38179;52.756;6.906;2023-05-16T01:57:04;8.50;99.90
52211;DHT22;38179;52.756;6.906;2023-05-16T01:59:33;8.40;99.90
52211;DHT22;38179;52.756;6.906;2023-05-16T02:01:59;8.40;99.90
52211;DHT22;38179;52.756;6.906;2023-05-16T02:04:25;8.40;99.90
52211;DHT22;38179;52.756;6.906;2023-05-16T02:06:51;8.40;99.90
52211;DHT22;38179;52.756;6.906;2023-05-16T02:09:17;8.30;99.90
52211;DHT22;38179;52.756;6.906;2023-05-16T02:11:43;8.20;99.90
52211;DHT22;38179;52.756;6.906;2023-05-16T02:14:11;8.20;99.90
52211;DHT22;38179;52.756;6.906;2023-05-16T02:16:37;8.10;99.90
52211;DHT22;38179;52.756;6.906;2023-05-16T02:19:03;8.20;99.90
52211;DHT22;38179;52.756;6.906;2023-05-16T02:21:29;8.20;99.90
52211;DHT22;38179;52.756;6.906;2023-05-16T02:23:55;8.20;99.90
52211;DHT22;38179;52.756;6.906;2023-05-16T02:26:21;8.10;99.90
52211;DHT22;38179;52.756;6.906;2023-05-16T02:28:47;8.10;99.90
52211;DHT22;38179;52.756;6.906;2023-05-16T02:31:26;8.00;99.90
52211;DHT22;38179;52.756;6.906;2023-05-16T02:33:52;8.00;99.90
52211;DHT22;38179;52.756;6.906;2023-05-16T02:36:18;7.90;99.90
52211;DHT22;38179;52.756;6.906;2023-05-16T02:38:44;7.90;99.90
52211;DHT22;38179;52.756;6.906;2023-05-16T02:41:10;7.80;99.90
52211;DHT22;38179;52.756;6.906;2023-05-16T02:43:36;7.90;99.90
52211;DHT22;38179;52.756;6.906;2023-05-16T02:46:19;7.80;99.90
52211;DHT22;38179;52.756;6.906;2023-05-16T02:48:46;7.90;99.90
52211;DHT22;38179;52.756;6.906;2023-05-16T02:51:12;7.90;99.90
52211;DHT22;38179;52.756;6.906;2023-05-16T02:53:37;7.80;99.90
52211;DHT22;38179;52.756;6.906;2023-05-16T02:56:04;7.70;99.90
52211;DHT22;38179;52.756;6.906;2023-05-16T02:58:31;7.70;99.90
52211;DHT22;38179;52.756;6.906;2023-05-16T03:00:57;7.70;99.90
52211;DHT22;38179;52.756;6.906;2023-05-16T03:03:23;7.70;99.90
52211;DHT22;38179;52.756;6.906;2023-05-16T03:05:49;7.70;99.90
52211;DHT22;38179;52.756;6.906;2023-05-16T03:08:16;7.70;99.90
52211;DHT22;38179;52.756;6.906;2023-05-16T03:10:42;7.70;99.90
52211;DHT22;38179;52.756;6.906;2023-05-16T03:13:08;7.70;99.90
52211;DHT22;38179;52.756;6.906;2023-05-16T03:15:34;7.60;99.90
52211;DHT22;38179;52.756;6.906;2023-05-16T03:18:00;7.60;99.90
52211;DHT22;38179;52.756;6.906;2023-05-16T03:20:25;7.60;99.90
52211;DHT22;38179;52.756;6.906;2023-05-16T03:22:51;7.50;99.90
52211;DHT22;38179;52.756;6.906;2023-05-16T03:25:17;7.60;99.90
52211;DHT22;38179;52.756;6.906;2023-05-16T03:27:43;7.50;99.90
52211;DHT22;38179;52.756;6.906;2023-05-16T03:30:09;7.50;99.90
52211;DHT22;38179;52.756;6.906;2023-05-16T03:32:37;7.40;99.90
52211;DHT22;38179;52.756;6.906;2023-05-16T03:35:03;7.40;99.90
52211;DHT22;38179;52.756;6.906;2023-05-16T03:37:29;7.40;99.90
52211;DHT22;38179;52.756;6.906;2023-05-16T03:39:55;7.50;99.90
52211;DHT22;38179;52.756;6.906;2023-05-16T03:42:20;7.40;99.90
52211;DHT22;38179;52.756;6.906;2023-05-16T03:44:46;7.40;99.90
52211;DHT22;38179;52.756;6.906;2023-05-16T03:47:12;7.50;99.90
52211;DHT22;38179;52.756;6.906;2023-05-16T03:49:39;7.50;99.90
52211;DHT22;38179;52.756;6.906;2023-05-16T03:52:05;7.50;99.90
52211;DHT22;38179;52.756;6.906;2023-05-16T03:54:31;7.60;99.90
52211;DHT22;38179;52.756;6.906;2023-05-16T03:56:57;7.60;99.90
52211;DHT22;38179;52.756;6.906;2023-05-16T03:59:23;7.60;99.90
52211;DHT22;38179;52.756;6.906;2023-05-16T04:01:49;7.60;99.90
52211;DHT22;38179;52.756;6.906;2023-05-16T04:04:15;7.60;99.90
52211;DHT22;38179;52.756;6.906;2023-05-16T04:06:41;7.60;99.90
52211;DHT22;38179;52.756;6.906;2023-05-16T04:09:06;7.60;99.90
52211;DHT22;38179;52.756;6.906;2023-05-16T04:11:32;7.50;99.90
52211;DHT22;38179;52.756;6.906;2023-05-16T04:13:58;7.60;99.90
52211;DHT22;38179;52.756;6.906;2023-05-16T04:16:26;7.60;99.90
52211;DHT22;38179;52.756;6.906;2023-05-16T04:18:52;7.60;99.90
52211;DHT22;38179;52.756;6.906;2023-05-16T04:21:18;7.50;99.90
52211;DHT22;38179;52.756;6.906;2023-05-16T04:23:44;7.50;99.90
52211;DHT22;38179;52.756;6.906;2023-05-16T04:26:09;7.60;99.90
52211;DHT22;38179;52.756;6.906;2023-05-16T04:28:36;7.60;99.90
52211;DHT22;38179;52.756;6.906;2023-05-16T04:31:01;7.60;99.90
52211;DHT22;38179;52.756;6.906;2023-05-16T04:33:27;7.60;99.90
52211;DHT22;38179;52.756;6.906;2023-05-16T04:35:53;7.70;99.90
52211;DHT22;38179;52.756;6.906;2023-05-16T04:38:19;7.70;99.90
52211;DHT22;38179;52.756;6.906;2023-05-16T04:40:45;7.70;99.90
52211;DHT22;38179;52.756;6.906;2023-05-16T04:43:11;7.70;99.90
52211;DHT22;38179;52.756;6.906;2023-05-16T04:45:37;7.70;99.90
52211;DHT22;38179;52.756;6.906;2023-05-16T04:48:03;7.70;99.90
52211;DHT22;38179;52.756;6.906;2023-05-16T04:50:29;7.70;99.90
52211;DHT22;38179;52.756;6.906;2023-05-16T04:52:54;7.70;99.90
52211;DHT22;38179;52.756;6.906;2023-05-16T04:55:21;7.70;99.90
52211;DHT22;38179;52.756;6.906;2023-05-16T04:57:46;7.80;99.90
52211;DHT22;38179;52.756;6.906;2023-05-16T05:00:13;7.70;99.90
52211;DHT22;38179;52.756;6.906;2023-05-16T05:02:38;7.80;99.90
52211;DHT22;38179;52.756;6.906;2023-05-16T05:05:05;7.90;99.90
52211;DHT22;38179;52.756;6.906;2023-05-16T05:07:34;7.90;99.90
52211;DHT22;38179;52.756;6.906;2023-05-16T05:10:00;7.90;99.90
52211;DHT22;38179;52.756;6.906;2023-05-16T05:12:26;7.90;99.90
52211;DHT22;38179;52.756;6.906;2023-05-16T05:14:53;8.00;99.90
52211;DHT22;38179;52.756;6.906;2023-05-16T05:17:19;8.00;99.90
52211;DHT22;38179;52.756;6.906;2023-05-16T05:19:46;8.00;99.90
52211;DHT22;38179;52.756;6.906;2023-05-16T05:22:13;8.10;99.90
52211;DHT22;38179;52.756;6.906;2023-05-16T05:24:39;8.10;99.90
52211;DHT22;38179;52.756;6.906;2023-05-16T05:27:05;8.10;99.90
52211;DHT22;38179;52.756;6.906;2023-05-16T05:29:31;8.20;99.90
52211;DHT22;38179;52.756;6.906;2023-05-16T05:31:57;8.30;99.90
52211;DHT22;38179;52.756;6.906;2023-05-16T05:34:23;8.30;99.90
52211;DHT22;38179;52.756;6.906;2023-05-16T05:36:48;8.30;99.90
52211;DHT22;38179;52.756;6.906;2023-05-16T05:39:14;8.30;99.90
52211;DHT22;38179;52.756;6.906;2023-05-16T05:41:41;8.40;99.90
52211;DHT22;38179;52.756;6.906;2023-05-16T05:44:07;8.40;99.90
52211;DHT22;38179;52.756;6.906;2023-05-16T05:46:32;8.50;99.90
52211;DHT22;38179;52.756;6.906;2023-05-16T05:48:59;8.50;99.90
52211;DHT22;38179;52.756;6.906;2023-05-16T05:51:25;8.60;99.90
52211;DHT22;38179;52.756;6.906;2023-05-16T05:53:52;8.60;99.90
52211;DHT22;38179;52.756;6.906;2023-05-16T05:56:18;8.70;99.90
52211;DHT22;38179;52.756;6.906;2023-05-16T05:58:45;8.80;99.90
52211;DHT22;38179;52.756;6.906;2023-05-16T06:01:11;8.90;99.90
52211;DHT22;38179;52.756;6.906;2023-05-16T06:03:37;8.90;99.90
52211;DHT22;38179;52.756;6.906;2023-05-16T06:06:03;9.10;99.90
52211;DHT22;38179;52.756;6.906;2023-05-16T06:08:29;9.10;99.90
52211;DHT22;38179;52.756;6.906;2023-05-16T06:10:55;9.20;99.90
52211;DHT22;38179;52.756;6.906;2023-05-16T06:13:21;9.20;99.90
52211;DHT22;38179;52.756;6.906;2023-05-16T06:15:51;9.20;99.90
52211;DHT22;38179;52.756;6.906;2023-05-16T06:18:18;9.30;99.90
52211;DHT22;38179;52.756;6.906;2023-05-16T06:20:44;9.20;99.90
52211;DHT22;38179;52.756;6.906;2023-05-16T06:23:10;9.20;99.90
52211;DHT22;38179;52.756;6.906;2023-05-16T06:25:36;9.20;99.90
52211;DHT22;38179;52.756;6.906;2023-05-16T06:28:02;9.20;99.90
52211;DHT22;38179;52.756;6.906;2023-05-16T06:30:28;9.30;99.90
52211;DHT22;38179;52.756;6.906;2023-05-16T06:32:54;9.40;99.90
52211;DHT22;38179;52.756;6.906;2023-05-16T06:35:20;9.40;99.90
52211;DHT22;38179;52.756;6.906;2023-05-16T06:37:46;9.50;99.90
52211;DHT22;38179;52.756;6.906;2023-05-16T06:40:13;9.50;99.90
52211;DHT22;38179;52.756;6.906;2023-05-16T06:42:39;9.50;99.90
52211;DHT22;38179;52.756;6.906;2023-05-16T06:45:05;9.60;99.90
52211;DHT22;38179;52.756;6.906;2023-05-16T06:47:31;9.60;99.90
52211;DHT22;38179;52.756;6.906;2023-05-16T06:49:57;9.70;99.90
52211;DHT22;38179;52.756;6.906;2023-05-16T06:52:24;9.70;99.90
52211;DHT22;38179;52.756;6.906;2023-05-16T06:54:50;9.70;99.90
52211;DHT22;38179;52.756;6.906;2023-05-16T06:57:16;9.80;99.90
52211;DHT22;38179;52.756;6.906;2023-05-16T06:59:42;9.90;99.90
52211;DHT22;38179;52.756;6.906;2023-05-16T07:02:08;10.00;99.90
52211;DHT22;38179;52.756;6.906;2023-05-16T07:04:34;10.10;99.90
52211;DHT22;38179;52.756;6.906;2023-05-16T07:07:03;10.10;99.90
52211;DHT22;38179;52.756;6.906;2023-05-16T07:09:29;10.30;99.90
52211;DHT22;38179;52.756;6.906;2023-05-16T07:11:55;10.40;99.90
52211;DHT22;38179;52.756;6.906;2023-05-16T07:14:21;10.50;99.90
52211;DHT22;38179;52.756;6.906;2023-05-16T07:16:47;10.50;99.90
52211;DHT22;38179;52.756;6.906;2023-05-16T07:19:13;10.40;99.90
52211;DHT22;38179;52.756;6.906;2023-05-16T07:21:39;10.40;99.90
52211;DHT22;38179;52.756;6.906;2023-05-16T07:24:06;10.40;99.90
52211;DHT22;38179;52.756;6.906;2023-05-16T07:26:32;10.40;99.90
52211;DHT22;38179;52.756;6.906;2023-05-16T07:28:58;10.40;99.90
52211;DHT22;38179;52.756;6.906;2023-05-16T07:31:24;10.50;99.90
52211;DHT22;38179;52.756;6.906;2023-05-16T07:33:50;10.50;99.90
52211;DHT22;38179;52.756;6.906;2023-05-16T07:36:16;10.60;99.90
52211;DHT22;38179;52.756;6.906;2023-05-16T07:38:42;10.70;99.90
52211;DHT22;38179;52.756;6.906;2023-05-16T07:41:08;10.80;99.90
52211;DHT22;38179;52.756;6.906;2023-05-16T07:43:34;10.80;99.90
52211;DHT22;38179;52.756;6.906;2023-05-16T07:46:01;10.80;99.90
52211;DHT22;38179;52.756;6.906;2023-05-16T07:48:27;10.70;99.90
52211;DHT22;38179;52.756;6.906;2023-05-16T07:50:53;10.50;99.90
52211;DHT22;38179;52.756;6.906;2023-05-16T07:53:20;10.50;99.90
52211;DHT22;38179;52.756;6.906;2023-05-16T07:55:47;10.50;99.90
52211;DHT22;38179;52.756;6.906;2023-05-16T07:58:13;10.40;99.90
52211;DHT22;38179;52.756;6.906;2023-05-16T08:00:39;10.50;99.90
52211;DHT22;38179;52.756;6.906;2023-05-16T08:03:05;10.50;99.90
52211;DHT22;38179;52.756;6.906;2023-05-16T08:05:32;10.70;99.90
52211;DHT22;38179;52.756;6.906;2023-05-16T08:07:57;10.70;99.90
52211;DHT22;38179;52.756;6.906;2023-05-16T08:10:23;10.80;99.90
52211;DHT22;38179;52.756;6.906;2023-05-16T08:12:49;10.80;99.90
52211;DHT22;38179;52.756;6.906;2023-05-16T08:15:15;10.80;99.90
52211;DHT22;38179;52.756;6.906;2023-05-16T08:17:41;10.80;99.90
52211;DHT22;38179;52.756;6.906;2023-05-16T08:20:07;10.70;99.90
52211;DHT22;38179;52.756;6.906;2023-05-16T08:22:33;10.70;99.90
52211;DHT22;38179;52.756;6.906;2023-05-16T08:24:59;10.80;99.90
52211;DHT22;38179;52.756;6.906;2023-05-16T08:27:26;10.90;99.90
52211;DHT22;38179;52.756;6.906;2023-05-16T08:29:52;11.00;99.90
52211;DHT22;38179;52.756;6.906;2023-05-16T08:32:18;11.10;99.90
52211;DHT22;38179;52.756;6.906;2023-05-16T08:34:44;11.10;99.90
52211;DHT22;38179;52.756;6.906;2023-05-16T08:37:10;11.10;99.90
52211;DHT22;38179;52.756;6.906;2023-05-16T08:39:39;11.20;99.90
52211;DHT22;38179;52.756;6.906;2023-05-16T08:42:05;11.20;99.90
52211;DHT22;38179;52.756;6.906;2023-05-16T08:44:31;11.30;99.90
52211;DHT22;38179;52.756;6.906;2023-05-16T08:47:04;11.40;99.90
52211;DHT22;38179;52.756;6.906;2023-05-16T08:49:33;11.40;99.90
52211;DHT22;38179;52.756;6.906;2023-05-16T08:52:00;11.50;99.90
52211;DHT22;38179;52.756;6.906;2023-05-16T08:54:27;11.60;99.90
52211;DHT22;38179;52.756;6.906;2023-05-16T08:56:55;11.60;99.90
52211;DHT22;38179;52.756;6.906;2023-05-16T08:59:22;11.60;99.90
52211;DHT22;38179;52.756;6.906;2023-05-16T09:01:48;11.60;99.90
52211;DHT22;38179;52.756;6.906;2023-05-16T09:04:15;11.60;99.90
52211;DHT22;38179;52.756;6.906;2023-05-16T09:06:40;11.50;99.90
52211;DHT22;38179;52.756;6.906;2023-05-16T09:09:06;11.50;99.90
52211;DHT22;38179;52.756;6.906;2023-05-16T09:11:35;11.50;99.90
52211;DHT22;38179;52.756;6.906;2023-05-16T09:14:01;11.50;99.90
52211;DHT22;38179;52.756;6.906;2023-05-16T09:16:27;11.50;99.90
52211;DHT22;38179;52.756;6.906;2023-05-16T09:18:57;11.60;99.90
52211;DHT22;38179;52.756;6.906;2023-05-16T09:21:28;11.70;99.90
52211;DHT22;38179;52.756;6.906;2023-05-16T09:23:54;11.60;99.90
52211;DHT22;38179;52.756;6.906;2023-05-16T09:26:21;11.70;99.90
52211;DHT22;38179;52.756;6.906;2023-05-16T09:28:47;11.80;99.90
52211;DHT22;38179;52.756;6.906;2023-05-16T09:33:46;12.00;99.90
52211;DHT22;38179;52.756;6.906;2023-05-16T09:36:14;12.00;99.90
52211;DHT22;38179;52.756;6.906;2023-05-16T09:38:40;11.80;99.90
52211;DHT22;38179;52.756;6.906;2023-05-16T09:41:09;11.90;99.90
52211;DHT22;38179;52.756;6.906;2023-05-16T09:43:38;12.00;99.90
52211;DHT22;38179;52.756;6.906;2023-05-16T09:46:04;12.00;99.90
52211;DHT22;38179;52.756;6.906;2023-05-16T09:48:33;12.10;99.90
52211;DHT22;38179;52.756;6.906;2023-05-16T09:51:00;12.10;99.90
52211;DHT22;38179;52.756;6.906;2023-05-16T09:53:31;12.10;99.90
52211;DHT22;38179;52.756;6.906;2023-05-16T09:56:05;12.20;99.90
52211;DHT22;38179;52.756;6.906;2023-05-16T09:58:34;12.30;99.90
52211;DHT22;38179;52.756;6.906;2023-05-16T10:01:01;12.40;99.90
52211;DHT22;38179;52.756;6.906;2023-05-16T10:03:27;12.40;99.90
52211;DHT22;38179;52.756;6.906;2023-05-16T10:05:54;12.40;99.90
52211;DHT22;38179;52.756;6.906;2023-05-16T10:08:22;12.30;99.90
52211;DHT22;38179;52.756;6.906;2023-05-16T10:10:53;12.10;99.90
52211;DHT22;38179;52.756;6.906;2023-05-16T10:13:21;12.00;99.90
52211;DHT22;38179;52.756;6.906;2023-05-16T10:15:50;11.70;99.90
52211;DHT22;38179;52.756;6.906;2023-05-16T10:18:20;11.50;99.90
52211;DHT22;38179;52.756;6.906;2023-05-16T10:20:50;11.50;99.90
52211;DHT22;38179;52.756;6.906;2023-05-16T10:23:19;11.60;99.90
52211;DHT22;38179;52.756;6.906;2023-05-16T10:25:47;11.70;99.90
52211;DHT22;38179;52.756;6.906;2023-05-16T10:28:15;11.90;99.90
52211;DHT22;38179;52.756;6.906;2023-05-16T10:30:45;12.10;99.90
52211;DHT22;38179;52.756;6.906;2023-05-16T10:33:13;12.20;99.90
52211;DHT22;38179;52.756;6.906;2023-05-16T10:35:40;12.20;99.90
52211;DHT22;38179;52.756;6.906;2023-05-16T10:38:07;12.20;99.90
52211;DHT22;38179;52.756;6.906;2023-05-16T10:40:39;12.10;99.90
52211;DHT22;38179;52.756;6.906;2023-05-16T10:43:06;12.20;99.90
52211;DHT22;38179;52.756;6.906;2023-05-16T10:45:33;12.10;99.90
52211;DHT22;38179;52.756;6.906;2023-05-16T10:48:03;12.10;99.90
52211;DHT22;38179;52.756;6.906;2023-05-16T10:53:18;11.90;99.90
52211;DHT22;38179;52.756;6.906;2023-05-16T10:56:07;11.90;99.90
52211;DHT22;38179;52.756;6.906;2023-05-16T11:06:32;12.20;99.90
52211;DHT22;38179;52.756;6.906;2023-05-16T11:14:33;12.60;99.90
52211;DHT22;38179;52.756;6.906;2023-05-16T11:17:12;12.60;99.90
52211;DHT22;38179;52.756;6.906;2023-05-16T11:24:37;12.40;99.90
52211;DHT22;38179;52.756;6.906;2023-05-16T11:27:04;12.40;99.90
52211;DHT22;38179;52.756;6.906;2023-05-16T11:29:35;12.40;99.90
52211;DHT22;38179;52.756;6.906;2023-05-16T11:32:03;12.50;99.90
52211;DHT22;38179;52.756;6.906;2023-05-16T11:34:30;12.50;99.90
52211;DHT22;38179;52.756;6.906;2023-05-16T11:36:57;12.70;99.90
52211;DHT22;38179;52.756;6.906;2023-05-16T11:39:24;12.70;99.90
52211;DHT22;38179;52.756;6.906;2023-05-16T11:41:52;12.70;99.90
52211;DHT22;38179;52.756;6.906;2023-05-16T11:44:18;12.90;99.90
52211;DHT22;38179;52.756;6.906;2023-05-16T11:46:44;13.00;99.90
52211;DHT22;38179;52.756;6.906;2023-05-16T11:49:11;13.10;99.90
52211;DHT22;38179;52.756;6.906;2023-05-16T11:51:38;13.10;99.90
52211;DHT22;38179;52.756;6.906;2023-05-16T11:54:06;13.20;99.90
52211;DHT22;38179;52.756;6.906;2023-05-16T11:56:34;13.30;99.90
52211;DHT22;38179;52.756;6.906;2023-05-16T11:59:02;13.30;99.90
52211;DHT22;38179;52.756;6.906;2023-05-16T12:01:36;13.40;99.90
52211;DHT22;38179;52.756;6.906;2023-05-16T12:04:12;13.40;99.90
52211;DHT22;38179;52.756;6.906;2023-05-16T12:06:39;13.40;99.90
52211;DHT22;38179;52.756;6.906;2023-05-16T12:09:06;13.40;99.90
52211;DHT22;38179;52.756;6.906;2023-05-16T12:11:39;13.50;99.90
52211;DHT22;38179;52.756;6.906;2023-05-16T12:14:06;13.40;99.90
52211;DHT22;38179;52.756;6.906;2023-05-16T12:16:33;13.40;99.90
52211;DHT22;38179;52.756;6.906;2023-05-16T12:19:02;13.30;99.90
52211;DHT22;38179;52.756;6.906;2023-05-16T12:21:30;13.40;99.90
52211;DHT22;38179;52.756;6.906;2023-05-16T12:23:56;13.40;99.90
52211;DHT22;38179;52.756;6.906;2023-05-16T12:26:31;13.40;99.90
52211;DHT22;38179;52.756;6.906;2023-05-16T12:29:00;13.30;99.90
52211;DHT22;38179;52.756;6.906;2023-05-16T12:31:28;13.20;99.90
52211;DHT22;38179;52.756;6.906;2023-05-16T12:33:56;13.20;99.90
52211;DHT22;38179;52.756;6.906;2023-05-16T12:36:23;13.20;99.90
52211;DHT22;38179;52.756;6.906;2023-05-16T12:38:52;13.10;99.90
52211;DHT22;38179;52.756;6.906;2023-05-16T12:41:19;13.20;99.90
52211;DHT22;38179;52.756;6.906;2023-05-16T12:43:46;13.10;99.90
52211;DHT22;38179;52.756;6.906;2023-05-16T12:46:12;13.00;99.90
52211;DHT22;38179;52.756;6.906;2023-05-16T12:48:39;13.10;99.90
52211;DHT22;38179;52.756;6.906;2023-05-16T12:51:14;13.10;99.90
52211;DHT22;38179;52.756;6.906;2023-05-16T12:53:41;13.10;99.90
52211;DHT22;38179;52.756;6.906;2023-05-16T12:56:08;13.00;99.90
52211;DHT22;38179;52.756;6.906;2023-05-16T12:58:35;12.90;99.90
52211;DHT22;38179;52.756;6.906;2023-05-16T13:01:02;12.80;99.90
52211;DHT22;38179;52.756;6.906;2023-05-16T13:03:28;12.90;99.90
52211;DHT22;38179;52.756;6.906;2023-05-16T13:05:55;13.10;99.90
52211;DHT22;38179;52.756;6.906;2023-05-16T13:08:21;13.40;99.90
52211;DHT22;38179;52.756;6.906;2023-05-16T13:10:46;13.50;99.90
52211;DHT22;38179;52.756;6.906;2023-05-16T13:13:12;13.40;99.90
52211;DHT22;38179;52.756;6.906;2023-05-16T13:15:40;13.20;99.90
52211;DHT22;38179;52.756;6.906;2023-05-16T13:18:07;13.10;99.90
52211;DHT22;38179;52.756;6.906;2023-05-16T13:20:33;12.90;99.90
52211;DHT22;38179;52.756;6.906;2023-05-16T13:22:59;12.70;99.90
52211;DHT22;38179;52.756;6.906;2023-05-16T13:25:25;12.40;99.90
52211;DHT22;38179;52.756;6.906;2023-05-16T13:27:51;12.40;99.90
52211;DHT22;38179;52.756;6.906;2023-05-16T13:30:17;12.40;99.90
52211;DHT22;38179;52.756;6.906;2023-05-16T13:32:43;12.50;99.90
52211;DHT22;38179;52.756;6.906;2023-05-16T13:35:09;12.50;99.90
52211;DHT22;38179;52.756;6.906;2023-05-16T13:37:35;12.50;99.90
52211;DHT22;38179;52.756;6.906;2023-05-16T13:40:02;12.80;99.90
52211;DHT22;38179;52.756;6.906;2023-05-16T13:42:29;13.00;99.90
52211;DHT22;38179;52.756;6.906;2023-05-16T13:44:56;13.10;99.90
52211;DHT22;38179;52.756;6.906;2023-05-16T13:47:22;13.00;99.90
52211;DHT22;38179;52.756;6.906;2023-05-16T13:49:48;13.00;99.90
52211;DHT22;38179;52.756;6.906;2023-05-16T13:52:14;13.10;99.90
52211;DHT22;38179;52.756;6.906;2023-05-16T13:54:40;13.10;99.90
52211;DHT22;38179;52.756;6.906;2023-05-16T13:57:06;13.10;99.90
52211;DHT22;38179;52.756;6.906;2023-05-16T13:59:32;13.00;99.90
52211;DHT22;38179;52.756;6.906;2023-05-16T14:01:58;13.00;99.90
52211;DHT22;38179;52.756;6.906;2023-05-16T14:04:24;13.00;99.90
52211;DHT22;38179;52.756;6.906;2023-05-16T14:06:51;13.00;99.90
52211;DHT22;38179;52.756;6.906;2023-05-16T14:09:17;12.90;99.90
52211;DHT22;38179;52.756;6.906;2023-05-16T14:11:43;12.90;99.90
52211;DHT22;38179;52.756;6.906;2023-05-16T14:14:09;12.80;99.90
52211;DHT22;38179;52.756;6.906;2023-05-16T14:16:35;12.70;99.90
52211;DHT22;38179;52.756;6.906;2023-05-16T14:19:01;12.50;99.90
52211;DHT22;38179;52.756;6.906;2023-05-16T14:21:27;12.50;99.90
52211;DHT22;38179;52.756;6.906;2023-05-16T14:23:53;12.40;99.90
52211;DHT22;38179;52.756;6.906;2023-05-16T14:26:19;12.30;99.90
52211;DHT22;38179;52.756;6.906;2023-05-16T14:28:50;12.20;99.90
52211;DHT22;38179;52.756;6.906;2023-05-16T14:31:16;12.20;99.90
52211;DHT22;38179;52.756;6.906;2023-05-16T14:33:42;12.20;99.90
52211;DHT22;38179;52.756;6.906;2023-05-16T14:36:08;12.20;99.90
52211;DHT22;38179;52.756;6.906;2023-05-16T14:38:35;12.60;99.90
52211;DHT22;38179;52.756;6.906;2023-05-16T14:41:01;12.90;99.90
52211;DHT22;38179;52.756;6.906;2023-05-16T14:43:27;13.20;99.90
52211;DHT22;38179;52.756;6.906;2023-05-16T14:45:53;13.30;99.90
52211;DHT22;38179;52.756;6.906;2023-05-16T14:48:19;13.20;99.90
52211;DHT22;38179;52.756;6.906;2023-05-16T14:50:45;13.10;99.90
52211;DHT22;38179;52.756;6.906;2023-05-16T14:53:11;12.90;99.90
52211;DHT22;38179;52.756;6.906;2023-05-16T14:55:37;12.90;99.90
52211;DHT22;38179;52.756;6.906;2023-05-16T14:58:04;12.90;99.90
52211;DHT22;38179;52.756;6.906;2023-05-16T15:00:30;12.90;99.90
52211;DHT22;38179;52.756;6.906;2023-05-16T15:02:56;12.80;99.90
52211;DHT22;38179;52.756;6.906;2023-05-16T15:05:22;12.60;99.90
52211;DHT22;38179;52.756;6.906;2023-05-16T15:07:50;12.40;99.90
52211;DHT22;38179;52.756;6.906;2023-05-16T15:10:16;12.30;99.90
52211;DHT22;38179;52.756;6.906;2023-05-16T15:12:42;12.10;99.90
52211;DHT22;38179;52.756;6.906;2023-05-16T15:15:09;12.10;99.90
52211;DHT22;38179;52.756;6.906;2023-05-16T15:17:39;12.10;99.90
52211;DHT22;38179;52.756;6.906;2023-05-16T15:20:07;11.90;99.90
52211;DHT22;38179;52.756;6.906;2023-05-16T15:22:35;12.10;99.90
52211;DHT22;38179;52.756;6.906;2023-05-16T15:25:02;12.20;99.90
52211;DHT22;38179;52.756;6.906;2023-05-16T15:27:30;12.20;99.90
52211;DHT22;38179;52.756;6.906;2023-05-16T15:29:56;12.50;99.90
52211;DHT22;38179;52.756;6.906;2023-05-16T15:32:22;12.60;99.90
52211;DHT22;38179;52.756;6.906;2023-05-16T15:34:48;12.70;99.90
52211;DHT22;38179;52.756;6.906;2023-05-16T15:37:14;12.70;99.90
52211;DHT22;38179;52.756;6.906;2023-05-16T15:39:40;12.50;99.90
52211;DHT22;38179;52.756;6.906;2023-05-16T15:42:07;12.50;99.90
52211;DHT22;38179;52.756;6.906;2023-05-16T15:44:33;12.20;99.90
52211;DHT22;38179;52.756;6.906;2023-05-16T15:46:59;12.10;99.90
52211;DHT22;38179;52.756;6.906;2023-05-16T15:49:26;12.00;99.90
52211;DHT22;38179;52.756;6.906;2023-05-16T15:51:53;11.90;99.90
52211;DHT22;38179;52.756;6.906;2023-05-16T15:54:19;11.90;99.90
52211;DHT22;38179;52.756;6.906;2023-05-16T15:56:45;11.80;99.90
52211;DHT22;38179;52.756;6.906;2023-05-16T15:59:11;11.80;99.90
52211;DHT22;38179;52.756;6.906;2023-05-16T16:01:37;11.70;99.90
52211;DHT22;38179;52.756;6.906;2023-05-16T16:04:03;11.80;99.90
52211;DHT22;38179;52.756;6.906;2023-05-16T16:06:29;11.70;99.90
52211;DHT22;38179;52.756;6.906;2023-05-16T16:08:56;11.70;99.90
52211;DHT22;38179;52.756;6.906;2023-05-16T16:11:22;11.70;99.90